sensor_id;sensor_type;location;lat;lon;timestamp;P1;durP1;ratioP1;P2;durP2;ratioP2
12112;SDS011;6120;52.250;8.478;2022-08-19T00:01:58;9.50;;;6.55;;
12112;SDS011;6120;52.250;8.478;2022-08-19T00:04:30;11.40;;;6.90;;
12112;SDS011;6120;52.250;8.478;2022-08-19T00:06:59;11.07;;;7.55;;
12112;SDS011;6120;52.250;8.478;2022-08-19T00:09:26;10.98;;;6.28;;
12112;SDS011;6120;52.250;8.478;2022-08-19T00:11:53;14.90;;;7.93;;
12112;SDS011;6120;52.250;8.478;2022-08-19T00:14:22;13.82;;;8.68;;
12112;SDS011;6120;52.250;8.478;2022-08-19T00:16:50;12.05;;;7.90;;
12112;SDS011;6120;52.250;8.478;2022-08-19T00:19:21;12.07;;;7.57;;
12112;SDS011;6120;52.250;8.478;2022-08-19T00:21:48;12.02;;;8.00;;
12112;SDS011;6120;52.250;8.478;2022-08-19T00:24:15;12.68;;;9.32;;
12112;SDS011;6120;52.250;8.478;2022-08-19T00:26:42;12.50;;;8.32;;
12112;SDS011;6120;52.250;8.478;2022-08-19T00:29:10;11.67;;;7.83;;
12112;SDS011;6120;52.250;8.478;2022-08-19T00:34:05;11.40;;;8.13;;
12112;SDS011;6120;52.250;8.478;2022-08-19T00:36:31;9.13;;;7.10;;
12112;SDS011;6120;52.250;8.478;2022-08-19T00:38:59;13.85;;;9.25;;
12112;SDS011;6120;52.250;8.478;2022-08-19T00:41:26;19.63;;;10.77;;
12112;SDS011;6120;52.250;8.478;2022-08-19T00:44:00;15.15;;;8.50;;
12112;SDS011;6120;52.250;8.478;2022-08-19T00:46:29;19.75;;;11.93;;
12112;SDS011;6120;52.250;8.478;2022-08-19T00:48:57;17.40;;;10.07;;
12112;SDS011;6120;52.250;8.478;2022-08-19T00:51:26;11.85;;;8.82;;
12112;SDS011;6120;52.250;8.478;2022-08-19T00:53:54;12.15;;;7.93;;
12112;SDS011;6120;52.250;8.478;2022-08-19T00:56:22;12.52;;;8.65;;
12112;SDS011;6120;52.250;8.478;2022-08-19T00:58:49;12.65;;;9.25;;
12112;SDS011;6120;52.250;8.478;2022-08-19T01:01:16;18.75;;;10.70;;
12112;SDS011;6120;52.250;8.478;2022-08-19T01:03:42;15.63;;;10.77;;
12112;SDS011;6120;52.250;8.478;2022-08-19T01:06:24;16.40;;;10.77;;
12112;SDS011;6120;52.250;8.478;2022-08-19T01:08:53;16.85;;;10.50;;
12112;SDS011;6120;52.250;8.478;2022-08-19T01:11:21;14.52;;;10.25;;
12112;SDS011;6120;52.250;8.478;2022-08-19T01:13:47;14.95;;;9.68;;
12112;SDS011;6120;52.250;8.478;2022-08-19T01:16:16;12.82;;;9.20;;
12112;SDS011;6120;52.250;8.478;2022-08-19T01:18:44;13.75;;;8.48;;
12112;SDS011;6120;52.250;8.478;2022-08-19T01:21:13;13.85;;;8.75;;
12112;SDS011;6120;52.250;8.478;2022-08-19T01:23:50;14.15;;;8.32;;
12112;SDS011;6120;52.250;8.478;2022-08-19T01:26:18;14.43;;;9.43;;
12112;SDS011;6120;52.250;8.478;2022-08-19T01:28:47;15.68;;;10.80;;
12112;SDS011;6120;52.250;8.478;2022-08-19T01:31:18;19.38;;;10.73;;
12112;SDS011;6120;52.250;8.478;2022-08-19T01:33:53;17.88;;;10.68;;
12112;SDS011;6120;52.250;8.478;2022-08-19T01:36:23;14.18;;;10.35;;
12112;SDS011;6120;52.250;8.478;2022-08-19T01:38:58;16.10;;;10.18;;
12112;SDS011;6120;52.250;8.478;2022-08-19T01:41:26;14.05;;;9.45;;
12112;SDS011;6120;52.250;8.478;2022-08-19T01:43:52;12.68;;;8.93;;
12112;SDS011;6120;52.250;8.478;2022-08-19T01:46:40;10.93;;;8.20;;
12112;SDS011;6120;52.250;8.478;2022-08-19T01:49:07;15.18;;;8.27;;
12112;SDS011;6120;52.250;8.478;2022-08-19T01:51:36;14.30;;;9.18;;
12112;SDS011;6120;52.250;8.478;2022-08-19T01:54:05;12.13;;;8.15;;
12112;SDS011;6120;52.250;8.478;2022-08-19T01:56:33;15.47;;;10.70;;
12112;SDS011;6120;52.250;8.478;2022-08-19T01:59:00;14.35;;;9.43;;
12112;SDS011;6120;52.250;8.478;2022-08-19T02:01:29;15.25;;;10.35;;
12112;SDS011;6120;52.250;8.478;2022-08-19T02:03:58;15.55;;;9.82;;
12112;SDS011;6120;52.250;8.478;2022-08-19T02:06:27;15.10;;;10.32;;
12112;SDS011;6120;52.250;8.478;2022-08-19T02:08:55;20.17;;;11.20;;
12112;SDS011;6120;52.250;8.478;2022-08-19T02:11:26;23.27;;;12.35;;
12112;SDS011;6120;52.250;8.478;2022-08-19T02:13:58;22.05;;;12.38;;
12112;SDS011;6120;52.250;8.478;2022-08-19T02:16:26;26.42;;;13.30;;
12112;SDS011;6120;52.250;8.478;2022-08-19T02:18:53;21.38;;;12.98;;
12112;SDS011;6120;52.250;8.478;2022-08-19T02:21:22;22.57;;;12.60;;
12112;SDS011;6120;52.250;8.478;2022-08-19T02:23:49;27.40;;;16.10;;
12112;SDS011;6120;52.250;8.478;2022-08-19T02:26:16;34.15;;;17.80;;
12112;SDS011;6120;52.250;8.478;2022-08-19T02:28:44;27.92;;;16.65;;
12112;SDS011;6120;52.250;8.478;2022-08-19T02:31:13;18.77;;;11.48;;
12112;SDS011;6120;52.250;8.478;2022-08-19T02:33:42;22.17;;;11.40;;
12112;SDS011;6120;52.250;8.478;2022-08-19T02:36:09;22.05;;;11.50;;
12112;SDS011;6120;52.250;8.478;2022-08-19T02:38:36;15.52;;;9.63;;
12112;SDS011;6120;52.250;8.478;2022-08-19T02:41:10;25.30;;;12.70;;
12112;SDS011;6120;52.250;8.478;2022-08-19T02:43:42;20.65;;;13.57;;
12112;SDS011;6120;52.250;8.478;2022-08-19T02:46:29;22.13;;;14.60;;
12112;SDS011;6120;52.250;8.478;2022-08-19T02:48:59;24.63;;;14.48;;
12112;SDS011;6120;52.250;8.478;2022-08-19T02:51:30;25.05;;;15.75;;
12112;SDS011;6120;52.250;8.478;2022-08-19T02:53:58;27.95;;;15.85;;
12112;SDS011;6120;52.250;8.478;2022-08-19T02:56:26;23.00;;;13.53;;
12112;SDS011;6120;52.250;8.478;2022-08-19T02:58:54;27.17;;;15.50;;
12112;SDS011;6120;52.250;8.478;2022-08-19T03:03:48;20.33;;;14.02;;
12112;SDS011;6120;52.250;8.478;2022-08-19T03:06:15;23.50;;;14.63;;
12112;SDS011;6120;52.250;8.478;2022-08-19T03:08:42;24.20;;;14.32;;
12112;SDS011;6120;52.250;8.478;2022-08-19T03:11:14;19.33;;;11.57;;
12112;SDS011;6120;52.250;8.478;2022-08-19T03:13:46;16.20;;;11.68;;
12112;SDS011;6120;52.250;8.478;2022-08-19T03:16:15;18.25;;;12.73;;
12112;SDS011;6120;52.250;8.478;2022-08-19T03:18:42;22.50;;;14.48;;
12112;SDS011;6120;52.250;8.478;2022-08-19T03:21:09;17.60;;;11.77;;
12112;SDS011;6120;52.250;8.478;2022-08-19T03:23:37;18.27;;;12.63;;
12112;SDS011;6120;52.250;8.478;2022-08-19T03:26:05;16.25;;;11.00;;
12112;SDS011;6120;52.250;8.478;2022-08-19T03:28:43;24.35;;;14.38;;
12112;SDS011;6120;52.250;8.478;2022-08-19T03:31:18;25.90;;;14.52;;
12112;SDS011;6120;52.250;8.478;2022-08-19T03:34:08;26.83;;;15.70;;
12112;SDS011;6120;52.250;8.478;2022-08-19T03:36:38;23.08;;;14.43;;
12112;SDS011;6120;52.250;8.478;2022-08-19T03:39:05;20.55;;;12.02;;
12112;SDS011;6120;52.250;8.478;2022-08-19T03:41:39;19.70;;;12.45;;
12112;SDS011;6120;52.250;8.478;2022-08-19T03:44:14;29.02;;;17.05;;
12112;SDS011;6120;52.250;8.478;2022-08-19T03:46:46;21.05;;;13.82;;
12112;SDS011;6120;52.250;8.478;2022-08-19T03:49:13;26.20;;;16.05;;
12112;SDS011;6120;52.250;8.478;2022-08-19T03:51:43;25.52;;;14.77;;
12112;SDS011;6120;52.250;8.478;2022-08-19T03:54:12;17.45;;;12.20;;
12112;SDS011;6120;52.250;8.478;2022-08-19T03:56:41;15.30;;;10.15;;
12112;SDS011;6120;52.250;8.478;2022-08-19T03:59:11;24.58;;;12.48;;
12112;SDS011;6120;52.250;8.478;2022-08-19T04:01:39;21.23;;;11.20;;
12112;SDS011;6120;52.250;8.478;2022-08-19T04:04:07;19.20;;;12.82;;
12112;SDS011;6120;52.250;8.478;2022-08-19T04:06:35;23.70;;;12.43;;
12112;SDS011;6120;52.250;8.478;2022-08-19T04:09:05;21.80;;;12.80;;
12112;SDS011;6120;52.250;8.478;2022-08-19T04:11:37;18.25;;;11.88;;
12112;SDS011;6120;52.250;8.478;2022-08-19T04:14:17;19.67;;;11.20;;
12112;SDS011;6120;52.250;8.478;2022-08-19T04:16:47;17.38;;;11.80;;
12112;SDS011;6120;52.250;8.478;2022-08-19T04:19:15;18.65;;;11.68;;
12112;SDS011;6120;52.250;8.478;2022-08-19T04:21:43;18.83;;;11.05;;
12112;SDS011;6120;52.250;8.478;2022-08-19T04:24:11;17.98;;;12.13;;
12112;SDS011;6120;52.250;8.478;2022-08-19T04:26:39;19.05;;;11.95;;
12112;SDS011;6120;52.250;8.478;2022-08-19T04:29:11;27.65;;;14.55;;
12112;SDS011;6120;52.250;8.478;2022-08-19T04:31:40;21.77;;;14.52;;
12112;SDS011;6120;52.250;8.478;2022-08-19T04:34:10;22.52;;;15.90;;
12112;SDS011;6120;52.250;8.478;2022-08-19T04:36:38;22.08;;;14.73;;
12112;SDS011;6120;52.250;8.478;2022-08-19T04:39:07;25.77;;;15.15;;
12112;SDS011;6120;52.250;8.478;2022-08-19T04:41:36;21.00;;;12.88;;
12112;SDS011;6120;52.250;8.478;2022-08-19T04:44:21;21.92;;;12.52;;
12112;SDS011;6120;52.250;8.478;2022-08-19T04:46:48;21.98;;;13.57;;
12112;SDS011;6120;52.250;8.478;2022-08-19T04:49:21;20.42;;;12.55;;
12112;SDS011;6120;52.250;8.478;2022-08-19T04:51:52;18.92;;;12.13;;
12112;SDS011;6120;52.250;8.478;2022-08-19T04:54:21;24.95;;;15.02;;
12112;SDS011;6120;52.250;8.478;2022-08-19T04:57:05;23.63;;;15.05;;
12112;SDS011;6120;52.250;8.478;2022-08-19T04:59:33;20.60;;;13.65;;
12112;SDS011;6120;52.250;8.478;2022-08-19T05:02:01;28.23;;;15.23;;
12112;SDS011;6120;52.250;8.478;2022-08-19T05:04:28;27.33;;;15.57;;
12112;SDS011;6120;52.250;8.478;2022-08-19T05:06:57;24.90;;;15.68;;
12112;SDS011;6120;52.250;8.478;2022-08-19T05:09:26;22.45;;;13.38;;
12112;SDS011;6120;52.250;8.478;2022-08-19T05:12:13;20.55;;;12.73;;
12112;SDS011;6120;52.250;8.478;2022-08-19T05:14:40;24.77;;;15.73;;
12112;SDS011;6120;52.250;8.478;2022-08-19T05:17:07;21.40;;;14.65;;
12112;SDS011;6120;52.250;8.478;2022-08-19T05:19:53;17.35;;;12.05;;
12112;SDS011;6120;52.250;8.478;2022-08-19T05:22:38;20.42;;;12.48;;
12112;SDS011;6120;52.250;8.478;2022-08-19T05:25:07;16.75;;;11.95;;
12112;SDS011;6120;52.250;8.478;2022-08-19T05:27:39;16.50;;;11.23;;
12112;SDS011;6120;52.250;8.478;2022-08-19T05:30:06;17.33;;;11.43;;
12112;SDS011;6120;52.250;8.478;2022-08-19T05:32:34;12.98;;;9.25;;
12112;SDS011;6120;52.250;8.478;2022-08-19T05:35:01;19.17;;;13.70;;
12112;SDS011;6120;52.250;8.478;2022-08-19T05:37:28;19.08;;;13.25;;
12112;SDS011;6120;52.250;8.478;2022-08-19T05:39:55;22.48;;;14.50;;
12112;SDS011;6120;52.250;8.478;2022-08-19T05:42:22;22.02;;;13.43;;
12112;SDS011;6120;52.250;8.478;2022-08-19T05:44:49;24.35;;;14.93;;
12112;SDS011;6120;52.250;8.478;2022-08-19T05:47:17;23.92;;;14.52;;
12112;SDS011;6120;52.250;8.478;2022-08-19T05:49:46;25.30;;;14.23;;
12112;SDS011;6120;52.250;8.478;2022-08-19T05:52:14;22.75;;;13.40;;
12112;SDS011;6120;52.250;8.478;2022-08-19T05:54:44;21.40;;;14.77;;
12112;SDS011;6120;52.250;8.478;2022-08-19T05:57:17;21.75;;;14.38;;
12112;SDS011;6120;52.250;8.478;2022-08-19T05:59:44;22.65;;;14.23;;
12112;SDS011;6120;52.250;8.478;2022-08-19T06:02:27;21.35;;;13.70;;
12112;SDS011;6120;52.250;8.478;2022-08-19T06:04:54;19.35;;;12.90;;
12112;SDS011;6120;52.250;8.478;2022-08-19T06:07:21;18.52;;;11.75;;
12112;SDS011;6120;52.250;8.478;2022-08-19T06:09:48;20.63;;;12.57;;
12112;SDS011;6120;52.250;8.478;2022-08-19T06:12:26;18.00;;;11.73;;
12112;SDS011;6120;52.250;8.478;2022-08-19T06:14:54;24.88;;;14.02;;
12112;SDS011;6120;52.250;8.478;2022-08-19T06:17:26;17.85;;;12.82;;
12112;SDS011;6120;52.250;8.478;2022-08-19T06:19:53;18.92;;;13.07;;
12112;SDS011;6120;52.250;8.478;2022-08-19T06:22:19;26.63;;;16.20;;
12112;SDS011;6120;52.250;8.478;2022-08-19T06:24:46;25.00;;;16.13;;
12112;SDS011;6120;52.250;8.478;2022-08-19T06:27:13;19.13;;;12.50;;
12112;SDS011;6120;52.250;8.478;2022-08-19T06:29:39;23.52;;;12.48;;
12112;SDS011;6120;52.250;8.478;2022-08-19T06:32:06;19.10;;;12.32;;
12112;SDS011;6120;52.250;8.478;2022-08-19T06:34:33;15.43;;;11.20;;
12112;SDS011;6120;52.250;8.478;2022-08-19T06:37:01;18.88;;;13.10;;
12112;SDS011;6120;52.250;8.478;2022-08-19T06:39:34;16.13;;;10.77;;
12112;SDS011;6120;52.250;8.478;2022-08-19T06:42:06;15.30;;;9.70;;
12112;SDS011;6120;52.250;8.478;2022-08-19T06:44:37;14.18;;;8.98;;
12112;SDS011;6120;52.250;8.478;2022-08-19T06:47:09;11.18;;;7.97;;
12112;SDS011;6120;52.250;8.478;2022-08-19T06:49:48;12.80;;;8.35;;
12112;SDS011;6120;52.250;8.478;2022-08-19T06:52:15;12.15;;;8.95;;
12112;SDS011;6120;52.250;8.478;2022-08-19T06:54:42;13.15;;;9.43;;
12112;SDS011;6120;52.250;8.478;2022-08-19T06:57:22;14.60;;;7.70;;
12112;SDS011;6120;52.250;8.478;2022-08-19T06:59:50;10.45;;;7.25;;
12112;SDS011;6120;52.250;8.478;2022-08-19T07:02:17;12.98;;;8.30;;
12112;SDS011;6120;52.250;8.478;2022-08-19T07:04:49;11.38;;;7.72;;
12112;SDS011;6120;52.250;8.478;2022-08-19T07:07:18;8.52;;;6.35;;
12112;SDS011;6120;52.250;8.478;2022-08-19T07:09:47;11.02;;;6.93;;
12112;SDS011;6120;52.250;8.478;2022-08-19T07:12:26;13.05;;;6.47;;
12112;SDS011;6120;52.250;8.478;2022-08-19T07:14:56;10.00;;;7.63;;
12112;SDS011;6120;52.250;8.478;2022-08-19T07:17:24;11.40;;;6.85;;
12112;SDS011;6120;52.250;8.478;2022-08-19T07:19:51;9.73;;;6.53;;
12112;SDS011;6120;52.250;8.478;2022-08-19T07:24:46;16.25;;;8.68;;
12112;SDS011;6120;52.250;8.478;2022-08-19T07:27:16;13.13;;;8.77;;
12112;SDS011;6120;52.250;8.478;2022-08-19T07:29:50;15.10;;;9.13;;
12112;SDS011;6120;52.250;8.478;2022-08-19T07:32:23;14.65;;;9.07;;
12112;SDS011;6120;52.250;8.478;2022-08-19T07:34:53;14.43;;;7.72;;
12112;SDS011;6120;52.250;8.478;2022-08-19T07:37:25;11.15;;;7.85;;
12112;SDS011;6120;52.250;8.478;2022-08-19T07:39:59;14.63;;;8.38;;
12112;SDS011;6120;52.250;8.478;2022-08-19T07:42:28;12.73;;;7.95;;
12112;SDS011;6120;52.250;8.478;2022-08-19T07:44:56;12.40;;;7.95;;
12112;SDS011;6120;52.250;8.478;2022-08-19T07:47:26;12.00;;;8.43;;
12112;SDS011;6120;52.250;8.478;2022-08-19T07:50:15;12.25;;;7.60;;
12112;SDS011;6120;52.250;8.478;2022-08-19T07:52:45;10.23;;;6.78;;
12112;SDS011;6120;52.250;8.478;2022-08-19T07:55:15;11.52;;;7.30;;
12112;SDS011;6120;52.250;8.478;2022-08-19T07:58:05;9.25;;;6.80;;
12112;SDS011;6120;52.250;8.478;2022-08-19T08:00:33;11.23;;;7.50;;
12112;SDS011;6120;52.250;8.478;2022-08-19T08:03:02;13.45;;;7.35;;
12112;SDS011;6120;52.250;8.478;2022-08-19T08:05:30;13.18;;;6.85;;
12112;SDS011;6120;52.250;8.478;2022-08-19T08:08:16;8.70;;;6.57;;
12112;SDS011;6120;52.250;8.478;2022-08-19T08:10:53;10.15;;;6.38;;
12112;SDS011;6120;52.250;8.478;2022-08-19T08:13:22;10.90;;;6.90;;
12112;SDS011;6120;52.250;8.478;2022-08-19T08:15:52;7.85;;;5.63;;
12112;SDS011;6120;52.250;8.478;2022-08-19T08:18:24;13.43;;;7.72;;
12112;SDS011;6120;52.250;8.478;2022-08-19T08:20:55;10.57;;;6.18;;
12112;SDS011;6120;52.250;8.478;2022-08-19T08:23:24;11.82;;;6.03;;
12112;SDS011;6120;52.250;8.478;2022-08-19T08:25:53;12.73;;;7.80;;
12112;SDS011;6120;52.250;8.478;2022-08-19T08:28:23;8.50;;;5.50;;
12112;SDS011;6120;52.250;8.478;2022-08-19T08:30:56;9.57;;;6.20;;
12112;SDS011;6120;52.250;8.478;2022-08-19T08:33:25;11.95;;;6.28;;
12112;SDS011;6120;52.250;8.478;2022-08-19T08:36:07;10.52;;;5.05;;
12112;SDS011;6120;52.250;8.478;2022-08-19T08:38:35;7.95;;;4.72;;
12112;SDS011;6120;52.250;8.478;2022-08-19T08:41:15;7.95;;;4.47;;
12112;SDS011;6120;52.250;8.478;2022-08-19T08:43:51;7.13;;;4.68;;
12112;SDS011;6120;52.250;8.478;2022-08-19T08:46:21;7.70;;;5.22;;
12112;SDS011;6120;52.250;8.478;2022-08-19T08:52:30;6.75;;;3.78;;
12112;SDS011;6120;52.250;8.478;2022-08-19T08:54:48;9.40;;;4.03;;
12112;SDS011;6120;52.250;8.478;2022-08-19T09:00:07;4.38;;;3.13;;
12112;SDS011;6120;52.250;8.478;2022-08-19T09:02:41;4.82;;;3.58;;
12112;SDS011;6120;52.250;8.478;2022-08-19T09:05:10;6.32;;;4.35;;
12112;SDS011;6120;52.250;8.478;2022-08-19T09:08:08;5.88;;;3.50;;
12112;SDS011;6120;52.250;8.478;2022-08-19T09:10:46;6.55;;;3.42;;
12112;SDS011;6120;52.250;8.478;2022-08-19T09:13:27;5.57;;;3.38;;
12112;SDS011;6120;52.250;8.478;2022-08-19T09:16:10;6.43;;;4.40;;
12112;SDS011;6120;52.250;8.478;2022-08-19T09:18:47;6.65;;;3.03;;
12112;SDS011;6120;52.250;8.478;2022-08-19T09:21:20;5.47;;;3.38;;
12112;SDS011;6120;52.250;8.478;2022-08-19T09:23:58;4.63;;;2.83;;
12112;SDS011;6120;52.250;8.478;2022-08-19T09:26:28;5.78;;;3.00;;
12112;SDS011;6120;52.250;8.478;2022-08-19T09:29:17;5.13;;;2.95;;
12112;SDS011;6120;52.250;8.478;2022-08-19T09:31:47;6.00;;;3.30;;
12112;SDS011;6120;52.250;8.478;2022-08-19T09:34:16;4.75;;;3.33;;
12112;SDS011;6120;52.250;8.478;2022-08-19T09:36:48;5.75;;;3.47;;
12112;SDS011;6120;52.250;8.478;2022-08-19T09:39:20;4.90;;;3.28;;
12112;SDS011;6120;52.250;8.478;2022-08-19T09:41:48;8.20;;;4.28;;
12112;SDS011;6120;52.250;8.478;2022-08-19T09:44:23;7.60;;;2.75;;
12112;SDS011;6120;52.250;8.478;2022-08-19T09:46:52;5.07;;;2.33;;
12112;SDS011;6120;52.250;8.478;2022-08-19T09:49:19;4.65;;;2.30;;
12112;SDS011;6120;52.250;8.478;2022-08-19T09:51:50;7.03;;;3.22;;
12112;SDS011;6120;52.250;8.478;2022-08-19T09:54:21;6.85;;;3.00;;
12112;SDS011;6120;52.250;8.478;2022-08-19T09:56:51;5.35;;;2.95;;
12112;SDS011;6120;52.250;8.478;2022-08-19T09:59:19;7.03;;;2.85;;
12112;SDS011;6120;52.250;8.478;2022-08-19T10:01:47;5.53;;;3.00;;
12112;SDS011;6120;52.250;8.478;2022-08-19T10:04:15;8.23;;;3.72;;
12112;SDS011;6120;52.250;8.478;2022-08-19T10:06:47;5.07;;;3.20;;
12112;SDS011;6120;52.250;8.478;2022-08-19T10:09:19;4.57;;;2.75;;
12112;SDS011;6120;52.250;8.478;2022-08-19T10:12:00;6.80;;;3.58;;
12112;SDS011;6120;52.250;8.478;2022-08-19T10:14:29;6.70;;;3.00;;
12112;SDS011;6120;52.250;8.478;2022-08-19T10:19:24;3.42;;;2.35;;
12112;SDS011;6120;52.250;8.478;2022-08-19T10:21:53;6.05;;;2.72;;
12112;SDS011;6120;52.250;8.478;2022-08-19T10:24:25;5.95;;;2.80;;
12112;SDS011;6120;52.250;8.478;2022-08-19T10:26:54;4.72;;;2.53;;
12112;SDS011;6120;52.250;8.478;2022-08-19T10:29:26;4.10;;;2.40;;
12112;SDS011;6120;52.250;8.478;2022-08-19T10:31:59;3.40;;;1.95;;
12112;SDS011;6120;52.250;8.478;2022-08-19T10:34:38;4.88;;;2.40;;
12112;SDS011;6120;52.250;8.478;2022-08-19T10:37:14;4.22;;;1.92;;
12112;SDS011;6120;52.250;8.478;2022-08-19T10:39:49;4.07;;;2.20;;
12112;SDS011;6120;52.250;8.478;2022-08-19T10:44:45;3.25;;;2.17;;
12112;SDS011;6120;52.250;8.478;2022-08-19T10:47:13;3.17;;;1.70;;
12112;SDS011;6120;52.250;8.478;2022-08-19T10:49:50;4.00;;;2.40;;
12112;SDS011;6120;52.250;8.478;2022-08-19T10:52:37;3.97;;;2.28;;
12112;SDS011;6120;52.250;8.478;2022-08-19T10:58:01;3.78;;;1.83;;
12112;SDS011;6120;52.250;8.478;2022-08-19T11:00:28;5.85;;;2.22;;
12112;SDS011;6120;52.250;8.478;2022-08-19T11:02:57;3.50;;;1.70;;
12112;SDS011;6120;52.250;8.478;2022-08-19T11:05:23;2.47;;;1.58;;
12112;SDS011;6120;52.250;8.478;2022-08-19T11:07:50;4.72;;;1.80;;
12112;SDS011;6120;52.250;8.478;2022-08-19T11:10:18;5.88;;;1.95;;
12112;SDS011;6120;52.250;8.478;2022-08-19T11:12:47;6.47;;;2.63;;
12112;SDS011;6120;52.250;8.478;2022-08-19T11:15:14;4.53;;;2.00;;
12112;SDS011;6120;52.250;8.478;2022-08-19T11:17:41;4.07;;;2.10;;
12112;SDS011;6120;52.250;8.478;2022-08-19T11:20:11;4.18;;;2.17;;
12112;SDS011;6120;52.250;8.478;2022-08-19T11:22:39;3.00;;;2.10;;
12112;SDS011;6120;52.250;8.478;2022-08-19T11:27:37;5.20;;;2.42;;
12112;SDS011;6120;52.250;8.478;2022-08-19T11:30:07;5.50;;;2.30;;
12112;SDS011;6120;52.250;8.478;2022-08-19T11:32:39;3.75;;;2.45;;
12112;SDS011;6120;52.250;8.478;2022-08-19T11:35:12;4.45;;;2.60;;
12112;SDS011;6120;52.250;8.478;2022-08-19T11:37:39;4.32;;;2.60;;
12112;SDS011;6120;52.250;8.478;2022-08-19T11:40:07;4.88;;;1.92;;
12112;SDS011;6120;52.250;8.478;2022-08-19T11:42:34;6.28;;;2.33;;
12112;SDS011;6120;52.250;8.478;2022-08-19T11:45:19;3.83;;;2.00;;
12112;SDS011;6120;52.250;8.478;2022-08-19T11:47:46;4.30;;;2.33;;
12112;SDS011;6120;52.250;8.478;2022-08-19T11:50:14;4.97;;;2.73;;
12112;SDS011;6120;52.250;8.478;2022-08-19T11:52:41;4.68;;;2.42;;
12112;SDS011;6120;52.250;8.478;2022-08-19T11:55:08;5.33;;;2.27;;
12112;SDS011;6120;52.250;8.478;2022-08-19T11:57:35;3.75;;;1.77;;
12112;SDS011;6120;52.250;8.478;2022-08-19T12:00:03;3.90;;;2.50;;
12112;SDS011;6120;52.250;8.478;2022-08-19T12:02:32;4.07;;;2.38;;
12112;SDS011;6120;52.250;8.478;2022-08-19T12:04:58;5.97;;;2.83;;
12112;SDS011;6120;52.250;8.478;2022-08-19T12:07:28;3.80;;;2.15;;
12112;SDS011;6120;52.250;8.478;2022-08-19T12:09:57;4.90;;;2.58;;
12112;SDS011;6120;52.250;8.478;2022-08-19T12:12:23;8.10;;;2.03;;
12112;SDS011;6120;52.250;8.478;2022-08-19T12:14:50;3.55;;;2.13;;
12112;SDS011;6120;52.250;8.478;2022-08-19T12:17:23;3.53;;;2.08;;
12112;SDS011;6120;52.250;8.478;2022-08-19T12:19:51;2.90;;;2.25;;
12112;SDS011;6120;52.250;8.478;2022-08-19T12:22:17;3.42;;;2.10;;
12112;SDS011;6120;52.250;8.478;2022-08-19T12:24:44;3.40;;;2.30;;
12112;SDS011;6120;52.250;8.478;2022-08-19T12:27:11;3.22;;;2.30;;
12112;SDS011;6120;52.250;8.478;2022-08-19T12:29:45;3.08;;;1.90;;
12112;SDS011;6120;52.250;8.478;2022-08-19T12:32:12;4.97;;;2.30;;
12112;SDS011;6120;52.250;8.478;2022-08-19T12:34:38;4.28;;;2.60;;
12112;SDS011;6120;52.250;8.478;2022-08-19T12:37:05;4.95;;;2.60;;
12112;SDS011;6120;52.250;8.478;2022-08-19T12:39:40;4.07;;;2.20;;
12112;SDS011;6120;52.250;8.478;2022-08-19T12:42:09;4.32;;;2.35;;
12112;SDS011;6120;52.250;8.478;2022-08-19T12:44:37;3.55;;;2.05;;
12112;SDS011;6120;52.250;8.478;2022-08-19T12:47:09;3.72;;;2.30;;
12112;SDS011;6120;52.250;8.478;2022-08-19T12:49:38;6.53;;;2.92;;
12112;SDS011;6120;52.250;8.478;2022-08-19T12:52:21;4.45;;;2.88;;
12112;SDS011;6120;52.250;8.478;2022-08-19T12:54:49;4.63;;;2.58;;
12112;SDS011;6120;52.250;8.478;2022-08-19T12:57:20;3.20;;;2.20;;
12112;SDS011;6120;52.250;8.478;2022-08-19T12:59:58;2.53;;;2.05;;
12112;SDS011;6120;52.250;8.478;2022-08-19T13:02:34;3.70;;;2.60;;
12112;SDS011;6120;52.250;8.478;2022-08-19T13:05:04;4.20;;;2.20;;
12112;SDS011;6120;52.250;8.478;2022-08-19T13:07:33;3.92;;;2.17;;
12112;SDS011;6120;52.250;8.478;2022-08-19T13:09:59;4.10;;;2.20;;
12112;SDS011;6120;52.250;8.478;2022-08-19T13:12:26;3.22;;;2.13;;
12112;SDS011;6120;52.250;8.478;2022-08-19T13:14:54;3.63;;;2.20;;
12112;SDS011;6120;52.250;8.478;2022-08-19T13:19:48;5.15;;;2.53;;
12112;SDS011;6120;52.250;8.478;2022-08-19T13:22:15;3.97;;;2.33;;
12112;SDS011;6120;52.250;8.478;2022-08-19T13:24:42;4.03;;;2.38;;
12112;SDS011;6120;52.250;8.478;2022-08-19T13:27:12;2.83;;;1.90;;
12112;SDS011;6120;52.250;8.478;2022-08-19T13:29:40;5.22;;;2.28;;
12112;SDS011;6120;52.250;8.478;2022-08-19T13:32:26;3.65;;;2.40;;
12112;SDS011;6120;52.250;8.478;2022-08-19T13:35:11;4.20;;;2.50;;
12112;SDS011;6120;52.250;8.478;2022-08-19T13:37:42;4.13;;;2.35;;
12112;SDS011;6120;52.250;8.478;2022-08-19T13:40:10;4.82;;;2.50;;
12112;SDS011;6120;52.250;8.478;2022-08-19T13:42:46;4.00;;;2.03;;
12112;SDS011;6120;52.250;8.478;2022-08-19T13:45:18;2.70;;;1.90;;
12112;SDS011;6120;52.250;8.478;2022-08-19T13:47:47;3.03;;;2.10;;
12112;SDS011;6120;52.250;8.478;2022-08-19T13:52:46;3.20;;;1.83;;
12112;SDS011;6120;52.250;8.478;2022-08-19T13:55:14;3.20;;;2.13;;
12112;SDS011;6120;52.250;8.478;2022-08-19T13:57:53;3.30;;;2.15;;
12112;SDS011;6120;52.250;8.478;2022-08-19T14:00:23;3.70;;;2.03;;
12112;SDS011;6120;52.250;8.478;2022-08-19T14:02:54;3.85;;;2.00;;
12112;SDS011;6120;52.250;8.478;2022-08-19T14:05:22;6.60;;;2.40;;
12112;SDS011;6120;52.250;8.478;2022-08-19T14:07:48;2.80;;;2.10;;
12112;SDS011;6120;52.250;8.478;2022-08-19T14:10:15;2.85;;;1.90;;
12112;SDS011;6120;52.250;8.478;2022-08-19T14:12:42;4.85;;;2.53;;
12112;SDS011;6120;52.250;8.478;2022-08-19T14:15:09;3.95;;;2.20;;
12112;SDS011;6120;52.250;8.478;2022-08-19T14:20:05;3.95;;;2.20;;
12112;SDS011;6120;52.250;8.478;2022-08-19T14:22:37;2.58;;;1.88;;
12112;SDS011;6120;52.250;8.478;2022-08-19T14:25:11;6.07;;;2.08;;
12112;SDS011;6120;52.250;8.478;2022-08-19T14:27:40;3.67;;;1.98;;
12112;SDS011;6120;52.250;8.478;2022-08-19T14:30:09;3.40;;;1.93;;
12112;SDS011;6120;52.250;8.478;2022-08-19T14:32:38;3.13;;;2.00;;
12112;SDS011;6120;52.250;8.478;2022-08-19T14:35:05;5.22;;;2.60;;
12112;SDS011;6120;52.250;8.478;2022-08-19T14:37:33;3.25;;;2.22;;
12112;SDS011;6120;52.250;8.478;2022-08-19T14:40:11;4.05;;;2.10;;
12112;SDS011;6120;52.250;8.478;2022-08-19T14:42:40;3.17;;;1.90;;
12112;SDS011;6120;52.250;8.478;2022-08-19T14:45:07;2.42;;;1.50;;
12112;SDS011;6120;52.250;8.478;2022-08-19T14:47:35;3.92;;;2.03;;
12112;SDS011;6120;52.250;8.478;2022-08-19T14:50:08;5.50;;;2.05;;
12112;SDS011;6120;52.250;8.478;2022-08-19T14:52:46;3.70;;;2.03;;
12112;SDS011;6120;52.250;8.478;2022-08-19T14:55:15;2.38;;;1.58;;
12112;SDS011;6120;52.250;8.478;2022-08-19T14:57:42;3.20;;;1.95;;
12112;SDS011;6120;52.250;8.478;2022-08-19T15:00:10;2.60;;;1.70;;
12112;SDS011;6120;52.250;8.478;2022-08-19T15:02:40;4.82;;;1.85;;
12112;SDS011;6120;52.250;8.478;2022-08-19T15:05:07;3.30;;;2.10;;
12112;SDS011;6120;52.250;8.478;2022-08-19T15:07:34;2.67;;;1.70;;
12112;SDS011;6120;52.250;8.478;2022-08-19T15:10:02;2.72;;;1.85;;
12112;SDS011;6120;52.250;8.478;2022-08-19T15:14:56;3.22;;;1.70;;
12112;SDS011;6120;52.250;8.478;2022-08-19T15:17:23;4.60;;;2.20;;
12112;SDS011;6120;52.250;8.478;2022-08-19T15:20:11;2.95;;;1.77;;
12112;SDS011;6120;52.250;8.478;2022-08-19T15:22:40;5.57;;;1.90;;
12112;SDS011;6120;52.250;8.478;2022-08-19T15:25:08;2.73;;;1.90;;
12112;SDS011;6120;52.250;8.478;2022-08-19T15:27:37;3.25;;;2.13;;
12112;SDS011;6120;52.250;8.478;2022-08-19T15:30:06;3.03;;;2.00;;
12112;SDS011;6120;52.250;8.478;2022-08-19T15:32:34;3.92;;;2.20;;
12112;SDS011;6120;52.250;8.478;2022-08-19T15:35:03;5.18;;;2.05;;
12112;SDS011;6120;52.250;8.478;2022-08-19T15:39:57;2.95;;;1.60;;
12112;SDS011;6120;52.250;8.478;2022-08-19T15:42:24;2.72;;;1.88;;
12112;SDS011;6120;52.250;8.478;2022-08-19T15:44:55;3.90;;;1.90;;
12112;SDS011;6120;52.250;8.478;2022-08-19T15:47:29;4.38;;;2.22;;